Time;durP1;ratioP1;P1;durP2;ratioP2;P2;SDS_P1;SDS_P2;PMS_P1;PMS_P2;Temp;Humidity;BMP_temperature;BMP_pressure;BME280_temperature;BME280_humidity;BME280_pressure;Samples;Min_cycle;Max_cycle;Signal;HPM_P1;HPM_P2
2020/12/17 00:00:49;;;;;;;23.27;14.03;;;4.20;99.90;;;;;;5084782;28;20208;-76
2020/12/17 00:03:14;;;;;;;25.43;14.50;;;4.10;99.90;;;;;;5083339;28;20189;-76
2020/12/17 00:05:40;;;;;;;27.27;14.73;;;4.20;99.90;;;;;;5082535;28;20184;-76
2020/12/17 00:08:05;;;;;;;21.20;14.13;;;4.20;99.90;;;;;;5084684;28;20173;-76
2020/12/17 00:10:31;;;;;;;16.27;11.50;;;4.20;99.90;;;;;;5080962;28;20298;-76
2020/12/17 00:12:57;;;;;;;21.17;14.97;;;4.20;99.90;;;;;;5085563;28;20259;-76
2020/12/17 00:15:22;;;;;;;22.70;14.20;;;4.30;99.90;;;;;;5082572;28;20188;-76
2020/12/17 00:17:50;;;;;;;48.70;28.37;;;4.30;99.90;;;;;;5084595;28;20190;-76
2020/12/17 00:20:18;;;;;;;27.63;18.10;;;4.40;99.90;;;;;;5082889;28;20186;-76
2020/12/17 00:22:44;;;;;;;24.30;17.80;;;4.50;99.90;;;;;;5082503;28;20430;-76
2020/12/17 00:25:11;;;;;;;26.90;17.37;;;4.60;99.90;;;;;;5083622;28;20459;-76
2020/12/17 00:27:38;;;;;;;33.67;20.20;;;4.70;99.90;;;;;;5082040;28;20718;-76
2020/12/17 00:30:05;;;;;;;26.07;16.20;;;4.70;99.90;;;;;;5084499;28;20535;-76
2020/12/17 00:32:31;;;;;;;27.27;16.77;;;4.60;99.90;;;;;;5081956;28;20422;-76
2020/12/17 00:34:56;;;;;;;27.73;18.60;;;4.60;99.90;;;;;;5085195;28;20477;-76
2020/12/17 00:37:26;;;;;;;25.30;17.50;;;4.70;99.90;;;;;;5081700;28;20178;-76
2020/12/17 00:39:52;;;;;;;25.37;16.20;;;4.80;99.90;;;;;;5084662;28;20193;-76
2020/12/17 00:42:18;;;;;;;24.07;15.67;;;4.80;99.90;;;;;;5081939;28;20434;-76
2020/12/17 00:44:43;;;;;;;21.17;14.83;;;4.80;99.90;;;;;;5083394;28;20533;-76
2020/12/17 00:47:09;;;;;;;20.70;15.10;;;4.80;99.90;;;;;;5083232;28;20187;-76
2020/12/17 00:49:34;;;;;;;21.93;15.57;;;4.90;99.90;;;;;;5081916;28;20260;-76
2020/12/17 00:52:00;;;;;;;16.03;13.33;;;4.90;99.90;;;;;;5084349;28;20268;-75
2020/12/17 00:54:27;;;;;;;23.00;14.93;;;4.80;99.90;;;;;;5081083;28;20216;-76
2020/12/17 00:56:53;;;;;;;23.17;14.80;;;4.80;99.90;;;;;;5083296;28;20456;-76
2020/12/17 00:59:18;;;;;;;17.40;14.33;;;4.80;99.90;;;;;;5081805;28;20931;-76
2020/12/17 01:01:44;;;;;;;18.33;14.87;;;4.70;99.90;;;;;;5083094;28;20193;-77
2020/12/17 01:04:10;;;;;;;18.63;14.10;;;4.70;99.90;;;;;;5082642;28;20897;-76
2020/12/17 01:06:35;;;;;;;18.00;13.90;;;4.70;99.90;;;;;;5081783;28;20259;-76
2020/12/17 01:09:01;;;;;;;21.87;13.47;;;4.60;99.90;;;;;;5082635;28;20291;-76
2020/12/17 01:11:31;;;;;;;19.37;14.57;;;4.50;99.90;;;;;;5080843;28;20564;-76
2020/12/17 01:13:56;;;;;;;17.30;14.40;;;4.50;99.90;;;;;;5080571;28;20763;-76
2020/12/17 01:16:22;;;;;;;16.70;13.30;;;4.40;99.90;;;;;;5084004;28;20504;-76
2020/12/17 01:18:50;;;;;;;16.10;12.87;;;4.40;99.90;;;;;;5081437;28;20275;-77
2020/12/17 01:21:16;;;;;;;19.33;14.20;;;4.40;99.90;;;;;;5081548;28;20533;-76
2020/12/17 01:23:42;;;;;;;18.50;13.13;;;4.30;99.90;;;;;;5082206;28;20424;-76
2020/12/17 01:26:08;;;;;;;17.00;12.63;;;4.30;99.90;;;;;;5081630;28;20438;-76
2020/12/17 01:28:34;;;;;;;15.30;11.30;;;4.20;99.90;;;;;;5082444;28;20698;-76
2020/12/17 01:31:07;;;;;;;19.20;13.20;;;4.20;99.90;;;;;;5080388;28;20536;-76
2020/12/17 01:33:33;;;;;;;18.60;12.77;;;4.10;99.90;;;;;;5083223;28;20473;-76
2020/12/17 01:36:04;;;;;;;16.37;11.93;;;4.10;99.90;;;;;;5080221;28;20418;-77
2020/12/17 01:38:30;;;;;;;17.03;13.10;;;4.00;99.90;;;;;;5083800;28;20175;-76
2020/12/17 01:40:56;;;;;;;17.70;13.00;;;4.00;99.90;;;;;;5080164;28;20813;-77
2020/12/17 01:43:22;;;;;;;15.47;12.47;;;3.90;99.90;;;;;;5083407;28;20174;-77
2020/12/17 01:45:47;;;;;;;14.17;11.97;;;3.80;99.90;;;;;;5080868;28;20849;-76
2020/12/17 01:48:15;;;;;;;14.93;11.37;;;3.80;99.90;;;;;;5082136;28;20513;-76
2020/12/17 01:50:41;;;;;;;15.57;13.20;;;3.80;99.90;;;;;;5081588;28;20221;-76
2020/12/17 01:53:06;;;;;;;15.67;11.87;;;3.70;99.90;;;;;;5080919;28;20571;-76
2020/12/17 01:55:32;;;;;;;15.80;12.13;;;3.60;99.90;;;;;;5083233;28;20213;-75
2020/12/17 01:58:00;;;;;;;14.03;11.57;;;3.60;99.90;;;;;;5079910;28;20688;-76
2020/12/17 02:00:30;;;;;;;18.10;11.83;;;3.50;99.90;;;;;;5079892;28;20281;-76
2020/12/17 02:02:55;;;;;;;13.70;11.70;;;3.50;99.90;;;;;;5079677;28;20422;-76
2020/12/17 02:05:21;;;;;;;14.40;11.70;;;3.40;99.90;;;;;;5082892;28;20826;-76
2020/12/17 02:07:46;;;;;;;14.83;11.27;;;3.40;99.90;;;;;;5080680;28;20195;-76
2020/12/17 02:10:12;;;;;;;14.80;12.00;;;3.40;99.90;;;;;;5081288;28;20207;-76
2020/12/17 02:12:45;;;;;;;12.93;11.03;;;3.30;99.90;;;;;;5081271;28;20177;-75
2020/12/17 02:15:11;;;;;;;13.97;11.40;;;3.30;99.90;;;;;;5081492;28;20177;-76
2020/12/17 02:17:37;;;;;;;20.53;11.50;;;3.20;99.90;;;;;;5082084;28;20702;-76
2020/12/17 02:20:07;;;;;;;19.60;12.50;;;3.20;99.90;;;;;;5079834;28;20477;-76
2020/12/17 02:22:34;;;;;;;18.03;11.97;;;3.20;99.90;;;;;;5082416;28;20191;-76
2020/12/17 02:24:59;;;;;;;15.07;11.63;;;3.20;99.90;;;;;;5079388;28;20420;-76
2020/12/17 02:27:25;;;;;;;18.67;11.60;;;3.20;99.90;;;;;;5083167;28;20489;-76
2020/12/17 02:29:50;;;;;;;15.93;12.20;;;3.10;99.90;;;;;;5078239;28;20206;-76
2020/12/17 02:32:16;;;;;;;14.60;11.53;;;3.10;99.90;;;;;;5081219;28;20613;-75
2020/12/17 02:34:42;;;;;;;13.43;11.20;;;3.00;99.90;;;;;;5081085;28;20170;-76
2020/12/17 02:37:09;;;;;;;16.53;11.10;;;2.90;99.90;;;;;;5080461;28;20178;-76
2020/12/17 02:39:34;;;;;;;14.80;11.40;;;3.00;99.90;;;;;;5082201;28;20181;-76
2020/12/17 02:42:00;;;;;;;14.23;11.37;;;3.00;99.90;;;;;;5079836;28;20546;-76
2020/12/17 02:44:26;;;;;;;13.07;11.20;;;3.00;99.90;;;;;;5082523;28;20186;-76
2020/12/17 02:46:51;;;;;;;17.30;12.63;;;3.00;99.90;;;;;;5079144;28;20177;-76
2020/12/17 02:49:17;;;;;;;14.83;11.43;;;3.00;99.90;;;;;;5081646;28;20209;-76
2020/12/17 02:51:42;;;;;;;19.93;12.80;;;3.00;99.90;;;;;;5080474;28;20262;-77
2020/12/17 02:54:08;;;;;;;17.60;12.83;;;3.00;99.90;;;;;;5080139;28;20594;-76
2020/12/17 02:56:33;;;;;;;25.13;12.73;;;3.10;99.90;;;;;;5081903;28;20169;-76
2020/12/17 02:58:59;;;;;;;18.17;13.80;;;3.20;99.90;;;;;;5079458;28;20200;-75
2020/12/17 03:01:24;;;;;;;15.70;12.60;;;3.30;99.90;;;;;;5082520;28;20277;-76
2020/12/17 03:03:50;;;;;;;18.53;12.37;;;3.30;99.90;;;;;;5079367;28;20601;-75
2020/12/17 03:06:15;;;;;;;15.67;11.73;;;3.40;99.90;;;;;;5081337;28;20188;-76
2020/12/17 03:08:41;;;;;;;18.70;12.50;;;3.40;99.90;;;;;;5080637;28;20186;-76
2020/12/17 03:11:07;;;;;;;15.50;12.43;;;3.40;99.90;;;;;;5080045;28;20212;-77
2020/12/17 03:13:32;;;;;;;18.60;12.10;;;3.40;99.90;;;;;;5082035;28;20201;-76
2020/12/17 03:15:58;;;;;;;16.80;11.97;;;3.40;99.90;;;;;;5078968;28;20190;-76
2020/12/17 03:18:23;;;;;;;18.93;12.43;;;3.40;99.90;;;;;;5082311;28;20175;-77
2020/12/17 03:20:49;;;;;;;17.30;13.30;;;3.50;99.90;;;;;;5079473;28;20689;-76
2020/12/17 03:23:14;;;;;;;18.60;12.40;;;3.50;99.90;;;;;;5080611;28;20191;-76
2020/12/17 03:25:40;;;;;;;16.33;11.93;;;3.50;99.90;;;;;;5084867;28;20548;-76
2020/12/17 03:28:05;;;;;;;14.80;11.97;;;3.50;99.90;;;;;;5083806;28;20188;-76
2020/12/17 03:30:31;;;;;;;17.80;12.00;;;3.50;99.90;;;;;;5085744;28;20587;-76
2020/12/17 03:32:57;;;;;;;17.77;12.70;;;3.50;99.90;;;;;;5082790;28;20705;-75
2020/12/17 03:35:23;;;;;;;15.60;12.00;;;3.50;99.90;;;;;;5085901;28;20542;-75
2020/12/17 03:37:48;;;;;;;18.67;12.90;;;3.50;99.90;;;;;;5083503;28;20419;-76
2020/12/17 03:40:14;;;;;;;17.13;13.70;;;3.40;99.90;;;;;;5084413;28;20186;-76
2020/12/17 03:42:39;;;;;;;15.40;12.27;;;3.50;99.90;;;;;;5084585;28;20712;-75
2020/12/17 03:45:05;;;;;;;15.00;12.10;;;3.40;99.90;;;;;;5082031;28;20202;-76
2020/12/17 03:47:31;;;;;;;17.33;11.67;;;3.40;99.90;;;;;;5085704;28;20185;-77
2020/12/17 03:49:56;;;;;;;18.73;11.53;;;3.50;99.90;;;;;;5081230;28;20256;-75
2020/12/17 03:52:22;;;;;;;18.20;12.20;;;3.50;99.90;;;;;;5085236;28;20205;-75
2020/12/17 03:54:47;;;;;;;15.20;11.83;;;3.50;99.90;;;;;;5083178;28;20203;-76
2020/12/17 03:57:13;;;;;;;13.67;11.97;;;3.50;99.90;;;;;;5084146;28;20197;-76
2020/12/17 03:59:38;;;;;;;20.00;11.43;;;3.40;99.90;;;;;;5084334;28;20260;-76
2020/12/17 04:02:04;;;;;;;17.53;11.70;;;3.50;99.90;;;;;;5081931;28;20196;-76
2020/12/17 04:04:29;;;;;;;14.07;11.43;;;3.50;99.90;;;;;;5085506;28;20659;-76
2020/12/17 04:06:55;;;;;;;14.87;11.50;;;3.50;99.90;;;;;;5082467;28;20187;-76
2020/12/17 04:09:20;;;;;;;16.60;11.83;;;3.50;99.90;;;;;;5084954;28;20207;-76
2020/12/17 04:11:46;;;;;;;17.43;13.23;;;3.50;99.90;;;;;;5083193;28;20221;-76
2020/12/17 04:14:11;;;;;;;16.77;11.90;;;3.60;99.90;;;;;;5083751;28;20185;-76
2020/12/17 04:16:37;;;;;;;19.10;12.33;;;3.60;99.90;;;;;;5084247;28;20173;-76
2020/12/17 04:19:02;;;;;;;17.23;12.53;;;3.60;99.90;;;;;;5082412;28;20214;-76
2020/12/17 04:21:28;;;;;;;15.53;11.90;;;3.70;99.90;;;;;;5085335;28;20276;-76
2020/12/17 04:23:53;;;;;;;18.30;12.60;;;3.70;99.90;;;;;;5081729;28;20713;-76
2020/12/17 04:26:19;;;;;;;15.97;11.70;;;3.70;99.90;;;;;;5084466;28;20227;-75
2020/12/17 04:28:45;;;;;;;17.70;11.30;;;3.70;99.90;;;;;;5081550;28;20173;-76
2020/12/17 04:31:10;;;;;;;15.37;12.53;;;3.70;99.90;;;;;;5083072;28;20679;-76
2020/12/17 04:33:36;;;;;;;16.73;12.70;;;3.70;99.90;;;;;;5083803;28;20177;-76
2020/12/17 04:36:02;;;;;;;23.03;13.27;;;3.80;99.90;;;;;;5080460;28;20175;-76
2020/12/17 04:38:28;;;;;;;12.63;11.03;;;3.80;99.90;;;;;;5085177;28;20173;-76
2020/12/17 04:40:54;;;;;;;19.83;11.90;;;3.80;99.90;;;;;;5081614;28;20545;-76
2020/12/17 04:43:20;;;;;;;18.30;12.90;;;3.80;99.90;;;;;;5084285;28;20435;-76
2020/12/17 04:45:45;;;;;;;18.10;11.27;;;3.80;99.90;;;;;;5082435;28;20424;-76
2020/12/17 04:48:16;;;;;;;14.93;10.37;;;3.80;99.90;;;;;;5083256;28;20671;-76
2020/12/17 04:50:43;;;;;;;14.60;11.27;;;3.80;99.90;;;;;;5082820;28;20200;-76
2020/12/17 04:53:14;;;;;;;15.83;12.10;;;3.80;99.90;;;;;;5082378;28;20514;-75
2020/12/17 04:55:40;;;;;;;16.77;12.07;;;3.80;99.90;;;;;;5083224;28;20730;-76
2020/12/17 04:58:08;;;;;;;15.40;11.17;;;3.80;99.90;;;;;;5082119;28;20412;-75
2020/12/17 05:00:40;;;;;;;16.87;12.03;;;3.80;99.90;;;;;;5083671;28;20497;-76
2020/12/17 05:03:11;;;;;;;14.90;11.60;;;3.80;99.90;;;;;;5082132;28;20789;-75
2020/12/17 05:05:37;;;;;;;15.57;12.10;;;3.80;99.90;;;;;;5083396;28;20829;-76
2020/12/17 05:08:03;;;;;;;16.70;12.70;;;3.80;99.90;;;;;;5081448;28;20481;-76
2020/12/17 05:10:28;;;;;;;15.50;11.13;;;3.90;99.90;;;;;;5084127;28;20472;-76
2020/12/17 05:12:54;;;;;;;19.63;12.23;;;3.90;99.90;;;;;;5080908;28;20242;-75
2020/12/17 05:15:26;;;;;;;15.43;11.30;;;4.00;99.90;;;;;;5083370;28;20193;-76
2020/12/17 05:17:52;;;;;;;20.63;13.57;;;4.00;99.90;;;;;;5081310;28;20175;-76
2020/12/17 05:20:18;;;;;;;16.47;11.63;;;4.00;99.90;;;;;;5083022;28;20425;-76
2020/12/17 05:22:45;;;;;;;16.40;12.33;;;4.10;99.90;;;;;;5082008;28;20782;-75
2020/12/17 05:25:12;;;;;;;16.30;11.50;;;4.10;99.90;;;;;;5082281;28;20240;-76
2020/12/17 05:27:39;;;;;;;17.07;11.63;;;4.20;99.90;;;;;;5082925;28;20480;-76
2020/12/17 05:30:05;;;;;;;15.80;11.20;;;4.20;99.90;;;;;;5081412;28;20473;-76
2020/12/17 05:32:30;;;;;;;17.03;13.37;;;4.30;99.90;;;;;;5084021;28;20440;-75
2020/12/17 05:34:55;;;;;;;14.60;11.00;;;4.30;99.90;;;;;;5079621;28;20202;-76
2020/12/17 05:37:24;;;;;;;14.40;11.10;;;4.40;99.90;;;;;;5083343;28;20179;-76
2020/12/17 05:39:50;;;;;;;13.73;10.63;;;4.40;99.90;;;;;;5081039;28;20271;-76
2020/12/17 05:42:15;;;;;;;16.27;11.10;;;4.40;99.90;;;;;;5082367;28;20568;-75
2020/12/17 05:44:41;;;;;;;14.90;11.00;;;4.40;99.90;;;;;;5081915;28;20559;-76
2020/12/17 05:47:12;;;;;;;19.13;13.80;;;4.30;99.90;;;;;;5080429;28;20667;-76
2020/12/17 05:49:38;;;;;;;22.50;11.77;;;4.40;99.90;;;;;;5081081;28;20211;-76
2020/12/17 05:52:09;;;;;;;15.93;11.10;;;4.40;99.90;;;;;;5080680;28;20412;-77
2020/12/17 05:54:35;;;;;;;20.53;11.10;;;4.30;99.90;;;;;;5082338;28;20201;-76
2020/12/17 05:57:09;;;;;;;13.73;10.60;;;4.30;99.90;;;;;;5080547;28;20817;-76
2020/12/17 05:59:35;;;;;;;17.57;11.63;;;4.20;99.90;;;;;;5082496;28;20203;-76
2020/12/17 06:02:18;;;;;;;18.60;11.37;;;4.20;99.90;;;;;;5080031;28;20461;-76
2020/12/17 06:04:44;;;;;;;16.00;11.50;;;4.20;99.90;;;;;;5081377;28;20312;-76
2020/12/17 06:07:14;;;;;;;15.47;11.70;;;4.30;99.90;;;;;;5081253;28;20490;-75
2020/12/17 06:09:46;;;;;;;13.77;10.77;;;4.30;99.90;;;;;;5081940;28;20198;-76
2020/12/17 06:12:18;;;;;;;13.00;10.63;;;4.30;99.90;;;;;;5081239;28;20600;-76
2020/12/17 06:14:46;;;;;;;12.50;10.40;;;4.20;99.90;;;;;;5081657;28;20401;-76
2020/12/17 06:17:19;;;;;;;16.03;11.30;;;4.20;99.90;;;;;;5081379;28;20436;-76
2020/12/17 06:19:46;;;;;;;13.60;10.07;;;4.30;99.90;;;;;;5081235;28;20947;-77
2020/12/17 06:22:12;;;;;;;21.30;11.40;;;4.20;99.90;;;;;;5079834;28;20492;-76
2020/12/17 06:24:40;;;;;;;14.53;11.20;;;4.20;99.90;;;;;;5081612;28;20485;-76
2020/12/17 06:27:09;;;;;;;15.73;10.77;;;4.30;99.90;;;;;;5080843;28;20922;-77
2020/12/17 06:29:49;;;;;;;16.87;10.17;;;4.20;99.90;;;;;;5082028;28;20486;-76
2020/12/17 06:32:17;;;;;;;19.17;10.30;;;4.30;99.90;;;;;;5081363;28;20841;-77
2020/12/17 06:34:46;;;;;;;14.37;10.03;;;4.20;99.90;;;;;;5081133;28;20417;-76
2020/12/17 06:37:15;;;;;;;16.30;10.33;;;4.30;99.90;;;;;;5081065;28;20421;-76
2020/12/17 06:39:48;;;;;;;14.77;10.30;;;4.40;99.90;;;;;;5081462;28;20419;-76
2020/12/17 06:42:37;;;;;;;14.83;10.97;;;4.30;99.90;;;;;;5080988;28;20484;-77
2020/12/17 06:45:22;;;;;;;15.97;9.87;;;4.20;99.90;;;;;;5079800;28;20427;-76
2020/12/17 06:47:47;;;;;;;13.80;9.97;;;4.10;99.90;;;;;;5080297;28;20426;-76
2020/12/17 06:50:27;;;;;;;33.17;11.50;;;4.10;99.90;;;;;;5080764;28;20469;-76
2020/12/17 06:53:08;;;;;;;16.27;11.53;;;4.00;99.90;;;;;;5079671;28;20631;-76
2020/12/17 06:55:42;;;;;;;22.40;12.23;;;4.00;99.90;;;;;;5079202;28;20981;-77
2020/12/17 06:58:16;;;;;;;17.20;11.47;;;4.00;99.90;;;;;;5080366;28;20449;-76
2020/12/17 07:00:42;;;;;;;15.87;11.30;;;4.00;99.90;;;;;;5081363;28;20414;-76
2020/12/17 07:03:07;;;;;;;13.90;10.30;;;3.90;99.90;;;;;;5082164;28;20755;-77
2020/12/17 07:05:33;;;;;;;17.70;10.80;;;3.90;99.90;;;;;;5081499;28;20623;-75
2020/12/17 07:07:59;;;;;;;16.40;11.00;;;4.00;99.90;;;;;;5085319;28;20180;-76
2020/12/17 07:10:26;;;;;;;14.03;9.73;;;4.00;99.90;;;;;;5086428;28;20982;-76
2020/12/17 07:12:52;;;;;;;18.03;11.20;;;4.00;99.90;;;;;;5084908;28;20432;-75
2020/12/17 07:15:30;;;;;;;13.40;10.50;;;4.10;99.90;;;;;;5081978;28;20419;-76
2020/12/17 07:18:16;;;;;;;18.23;10.50;;;4.10;99.90;;;;;;5079865;28;20206;-77
2020/12/17 07:20:43;;;;;;;11.33;9.50;;;4.20;99.90;;;;;;5114630;28;20418;-76
2020/12/17 07:23:10;;;;;;;12.40;10.10;;;4.20;99.90;;;;;;5086273;28;20424;-76
2020/12/17 07:25:39;;;;;;;15.80;11.10;;;4.30;99.90;;;;;;5083115;28;20477;-76
2020/12/17 07:28:06;;;;;;;13.93;9.70;;;4.20;99.90;;;;;;5083126;28;20437;-76
2020/12/17 07:30:32;;;;;;;13.70;10.33;;;4.30;99.90;;;;;;5078867;28;20448;-77
2020/12/17 07:32:57;;;;;;;15.27;10.50;;;4.30;99.90;;;;;;5082536;28;20764;-77
2020/12/17 07:35:27;;;;;;;13.10;10.13;;;4.30;99.90;;;;;;5078827;28;20649;-76
2020/12/17 07:37:57;;;;;;;12.07;9.47;;;4.40;99.90;;;;;;5082653;28;20170;-75
2020/12/17 07:40:27;;;;;;;13.33;9.63;;;4.40;99.90;;;;;;5082738;28;20422;-77
2020/12/17 07:43:12;;;;;;;12.07;10.00;;;4.40;99.90;;;;;;5077716;28;20423;-77
2020/12/17 07:45:45;;;;;;;12.33;10.30;;;4.50;99.90;;;;;;5078576;28;20420;-76
2020/12/17 07:48:39;;;;;;;16.00;10.77;;;4.50;99.90;;;;;;5080746;28;20429;-76
2020/12/17 07:51:14;;;;;;;16.17;9.50;;;4.50;99.90;;;;;;5083164;28;20469;-76
2020/12/17 07:53:47;;;;;;;15.77;10.17;;;4.40;99.90;;;;;;5080477;28;20434;-76
2020/12/17 07:56:13;;;;;;;11.70;9.27;;;4.40;99.90;;;;;;5080185;28;20490;-75
2020/12/17 07:58:40;;;;;;;16.73;11.20;;;4.50;99.90;;;;;;5083830;28;20423;-76
2020/12/17 08:01:06;;;;;;;19.80;9.63;;;4.40;99.90;;;;;;5077875;28;20456;-77
2020/12/17 08:03:42;;;;;;;15.30;9.17;;;4.40;99.90;;;;;;5077607;28;20429;-76
2020/12/17 08:06:10;;;;;;;14.97;9.80;;;4.40;99.90;;;;;;5083006;28;20404;-76
2020/12/17 08:08:35;;;;;;;19.50;10.97;;;4.40;99.90;;;;;;5078667;28;20426;-76
2020/12/17 08:11:02;;;;;;;13.17;10.40;;;4.40;99.90;;;;;;5081501;28;20472;-76
2020/12/17 08:13:28;;;;;;;13.63;9.73;;;4.40;99.90;;;;;;5085420;28;20178;-77
2020/12/17 08:15:55;;;;;;;11.73;9.90;;;4.50;99.90;;;;;;5082163;28;20833;-76
2020/12/17 08:18:28;;;;;;;13.00;9.40;;;4.50;99.90;;;;;;5088768;28;20206;-76
2020/12/17 08:21:08;;;;;;;22.43;9.83;;;4.40;99.90;;;;;;5081355;28;20441;-76
2020/12/17 08:23:36;;;;;;;18.53;11.57;;;4.50;99.90;;;;;;5082232;28;20424;-76
2020/12/17 08:26:04;;;;;;;17.67;11.30;;;4.50;99.90;;;;;;5085253;28;20509;-76
2020/12/17 08:28:36;;;;;;;15.50;10.40;;;4.40;99.90;;;;;;5085132;28;20424;-77
2020/12/17 08:31:12;;;;;;;14.20;10.30;;;4.40;99.90;;;;;;5081631;28;20824;-76
2020/12/17 08:33:45;;;;;;;12.90;11.10;;;4.50;99.90;;;;;;5082516;28;20428;-76
2020/12/17 08:36:13;;;;;;;16.60;10.53;;;4.60;99.90;;;;;;5083037;28;20416;-76
2020/12/17 08:38:39;;;;;;;14.37;11.10;;;4.60;99.90;;;;;;5082597;28;20858;-76
2020/12/17 08:41:07;;;;;;;15.23;10.00;;;4.70;99.90;;;;;;5082060;28;20915;-76
2020/12/17 08:43:41;;;;;;;15.20;10.57;;;4.70;99.90;;;;;;5084595;28;20766;-75
2020/12/17 08:46:11;;;;;;;16.23;11.10;;;4.80;99.90;;;;;;5082393;28;20919;-76
2020/12/17 08:48:37;;;;;;;12.47;9.63;;;4.90;99.90;;;;;;5086275;28;20515;-76
2020/12/17 08:51:04;;;;;;;14.37;10.70;;;5.00;99.90;;;;;;5081501;28;21019;-76
2020/12/17 08:53:30;;;;;;;13.37;10.33;;;5.10;99.90;;;;;;5083084;28;20429;-77
2020/12/17 08:56:12;;;;;;;14.60;9.20;;;5.20;99.90;;;;;;5081394;28;20428;-76
2020/12/17 08:58:45;;;;;;;13.60;10.33;;;5.30;99.90;;;;;;5082509;28;20834;-77
2020/12/17 09:01:35;;;;;;;13.80;10.33;;;5.50;99.90;;;;;;5081561;28;20431;-77
2020/12/17 09:04:09;;;;;;;14.33;10.40;;;5.50;99.90;;;;;;5080080;28;20496;-76
2020/12/17 09:06:37;;;;;;;17.73;9.93;;;5.70;99.90;;;;;;5083764;28;21021;-76
2020/12/17 09:09:15;;;;;;;20.93;10.30;;;5.70;99.90;;;;;;5081490;28;20422;-76
2020/12/17 09:11:47;;;;;;;13.87;8.93;;;5.80;99.90;;;;;;5082734;28;20430;-76
2020/12/17 09:14:19;;;;;;;22.00;10.60;;;5.90;99.90;;;;;;5082522;28;20425;-76
2020/12/17 09:16:46;;;;;;;10.10;8.70;;;6.00;99.90;;;;;;5082303;28;20516;-77
2020/12/17 09:19:11;;;;;;;11.37;10.27;;;6.10;99.90;;;;;;5085140;28;20392;-76
2020/12/17 09:21:59;;;;;;;12.80;10.40;;;6.20;99.90;;;;;;5081508;28;20832;-76
2020/12/17 09:24:26;;;;;;;10.43;8.63;;;6.50;99.90;;;;;;5080693;28;20213;-78
2020/12/17 09:26:51;;;;;;;10.93;7.47;;;6.90;99.90;;;;;;5085050;28;20413;-77
2020/12/17 09:29:17;;;;;;;13.60;7.03;;;7.80;99.90;;;;;;5080680;28;20460;-77
2020/12/17 09:31:42;;;;;;;11.40;7.80;;;8.60;99.90;;;;;;5079356;28;20190;-77
2020/12/17 09:34:11;;;;;;;9.10;7.50;;;9.30;99.90;;;;;;5081635;28;20183;-77
2020/12/17 09:36:42;;;;;;;8.43;6.37;;;10.00;99.90;;;;;;5082940;28;20193;-77
2020/12/17 09:39:14;;;;;;;7.63;6.70;;;10.40;99.90;;;;;;5080509;28;20444;-77
2020/12/17 09:41:56;;;;;;;7.93;5.70;;;11.10;99.90;;;;;;5080361;28;20454;-77
2020/12/17 09:44:27;;;;;;;8.67;4.37;;;11.90;99.90;;;;;;5083002;28;20420;-77
2020/12/17 09:46:52;;;;;;;7.03;4.80;;;12.50;99.90;;;;;;5080741;28;20480;-76
2020/12/17 09:49:28;;;;;;;8.50;4.40;;;13.00;99.90;;;;;;5082590;28;20826;-78
2020/12/17 09:52:02;;;;;;;4.67;3.53;;;13.50;99.90;;;;;;5080390;28;20578;-76
2020/12/17 09:54:28;;;;;;;3.43;3.13;;;13.60;99.90;;;;;;5079934;28;20940;-75
2020/12/17 09:57:19;;;;;;;3.13;2.83;;;13.90;99.90;;;;;;5078598;28;20423;-76
2020/12/17 09:59:45;;;;;;;4.50;3.00;;;14.00;99.90;;;;;;5077984;28;20216;-76
2020/12/17 10:02:13;;;;;;;2.17;1.97;;;14.10;99.90;;;;;;5081274;28;20481;-77
2020/12/17 10:04:40;;;;;;;5.53;1.80;;;14.40;99.90;;;;;;5081062;28;20429;-77
2020/12/17 10:07:07;;;;;;;2.13;1.60;;;14.40;99.90;;;;;;5080723;28;20510;-76
2020/12/17 10:09:32;;;;;;;2.90;1.90;;;14.30;99.90;;;;;;5084744;28;20465;-77
2020/12/17 10:11:58;;;;;;;2.07;1.87;;;14.40;99.90;;;;;;5079688;28;20443;-74
2020/12/17 10:14:26;;;;;;;1.93;1.83;;;14.50;99.90;;;;;;5083943;28;20177;-75
2020/12/17 10:16:59;;;;;;;1.70;1.60;;;14.20;99.90;;;;;;5079692;28;20177;-74
2020/12/17 10:19:29;;;;;;;1.70;1.60;;;13.60;99.90;;;;;;5079757;28;20415;-74
2020/12/17 10:21:55;;;;;;;6.43;2.03;;;13.50;99.90;;;;;;5081596;28;20479;-74
2020/12/17 10:24:21;;;;;;;3.13;2.17;;;13.50;99.90;;;;;;5079927;28;20432;-74
2020/12/17 10:26:46;;;;;;;1.80;1.70;;;13.40;99.90;;;;;;5081766;28;20415;-75
2020/12/17 10:29:12;;;;;;;2.40;2.20;;;13.60;99.90;;;;;;5080039;28;20262;-74
2020/12/17 10:31:37;;;;;;;2.03;1.80;;;13.40;99.90;;;;;;5079815;28;20557;-74
2020/12/17 10:34:03;;;;;;;1.93;1.83;;;13.10;99.90;;;;;;5082665;28;20208;-74
2020/12/17 10:36:29;;;;;;;1.60;1.50;;;12.80;99.90;;;;;;5082798;28;20183;-74
2020/12/17 10:38:54;;;;;;;2.33;2.13;;;12.80;99.90;;;;;;5078316;28;20180;-74
2020/12/17 10:41:27;;;;;;;5.63;2.07;;;12.70;99.90;;;;;;5081922;28;20682;-74
2020/12/17 10:43:53;;;;;;;2.20;2.07;;;13.00;99.90;;;;;;5081235;28;20237;-74
2020/12/17 10:46:18;;;;;;;1.57;1.40;;;13.30;99.90;;;;;;5083996;28;20529;-74
2020/12/17 10:48:44;;;;;;;3.77;1.60;;;13.50;99.90;;;;;;5079937;28;21008;-74
2020/12/17 10:51:13;;;;;;;3.80;2.73;;;13.60;99.90;;;;;;5081032;28;20219;-74
2020/12/17 10:53:38;;;;;;;4.60;1.70;;;13.50;99.90;;;;;;5080068;28;20427;-74
2020/12/17 10:56:06;;;;;;;3.23;2.60;;;13.50;99.90;;;;;;5082133;28;20460;-77
2020/12/17 10:58:32;;;;;;;2.13;1.93;;;13.70;99.90;;;;;;5079498;28;20177;-77
2020/12/17 11:00:57;;;;;;;2.40;2.20;;;13.70;99.90;;;;;;5082457;28;20445;-77
2020/12/17 11:03:23;;;;;;;2.20;1.63;;;13.80;99.90;;;;;;5078407;28;20254;-77
2020/12/17 11:05:48;;;;;;;5.03;3.53;;;13.40;99.90;;;;;;5079184;28;20228;-76
2020/12/17 11:08:14;;;;;;;2.40;1.73;;;13.10;99.90;;;;;;5080952;28;20188;-77
2020/12/17 11:10:39;;;;;;;3.50;1.67;;;12.70;99.90;;;;;;5081489;28;20293;-77
2020/12/17 11:13:05;;;;;;;1.97;1.87;;;12.40;99.90;;;;;;5083275;28;20183;-76
2020/12/17 11:15:30;;;;;;;3.13;2.10;;;12.20;99.90;;;;;;5079120;28;20553;-77
2020/12/17 11:17:56;;;;;;;2.70;2.50;;;12.10;99.90;;;;;;5082567;28;20611;-77
2020/12/17 11:20:21;;;;;;;2.13;1.93;;;12.10;99.90;;;;;;5079519;28;20184;-76
2020/12/17 11:22:47;;;;;;;2.70;1.60;;;12.00;99.90;;;;;;5084925;28;20222;-77
2020/12/17 11:25:12;;;;;;;7.70;2.70;;;12.00;99.90;;;;;;5088737;28;20185;-77
2020/12/17 11:27:38;;;;;;;2.90;2.20;;;11.70;99.90;;;;;;5082946;28;20194;-78
2020/12/17 11:30:07;;;;;;;7.23;3.17;;;11.50;99.90;;;;;;5079219;28;20284;-76
2020/12/17 11:32:34;;;;;;;4.60;2.70;;;11.50;99.90;;;;;;5079277;28;20670;-75
2020/12/17 11:35:00;;;;;;;4.60;3.27;;;11.40;99.90;;;;;;5082335;28;20421;-77
2020/12/17 11:37:25;;;;;;;6.30;3.43;;;11.20;99.90;;;;;;5078879;28;20877;-74
2020/12/17 11:39:51;;;;;;;6.20;3.70;;;11.10;99.90;;;;;;5081411;28;20512;-74
2020/12/17 11:42:19;;;;;;;8.10;3.43;;;11.00;99.90;;;;;;5078628;28;20317;-74
2020/12/17 11:44:44;;;;;;;4.07;3.50;;;10.90;99.90;;;;;;5082188;28;20299;-77
2020/12/17 11:47:10;;;;;;;7.80;3.77;;;10.90;99.90;;;;;;5084732;28;20526;-77
2020/12/17 11:49:35;;;;;;;7.20;4.13;;;10.80;99.90;;;;;;5083182;28;20220;-78
2020/12/17 11:52:01;;;;;;;7.83;5.10;;;10.80;99.90;;;;;;5080407;28;20203;-77
2020/12/17 11:54:26;;;;;;;5.33;4.80;;;10.80;99.90;;;;;;5085730;28;20196;-76
2020/12/17 11:56:53;;;;;;;5.50;5.00;;;10.80;99.90;;;;;;5082976;28;20204;-77
2020/12/17 11:59:19;;;;;;;8.50;5.70;;;10.80;99.90;;;;;;5085988;28;20225;-76
2020/12/17 12:01:45;;;;;;;15.57;6.10;;;10.80;99.90;;;;;;5082755;28;20445;-77
2020/12/17 12:04:11;;;;;;;7.13;6.43;;;10.80;99.90;;;;;;5083929;28;20207;-75
2020/12/17 12:06:37;;;;;;;7.50;5.67;;;10.80;99.90;;;;;;5084765;28;20464;-76
2020/12/17 12:09:05;;;;;;;8.60;5.90;;;10.70;99.90;;;;;;5082478;28;20432;-76
2020/12/17 12:11:31;;;;;;;9.20;6.47;;;10.60;99.90;;;;;;5083858;28;20200;-76
2020/12/17 12:13:57;;;;;;;8.63;5.70;;;10.60;99.90;;;;;;5080700;28;20474;-76
2020/12/17 12:16:23;;;;;;;6.23;5.20;;;10.50;99.90;;;;;;5084910;28;20217;-76
2020/12/17 12:18:49;;;;;;;6.60;5.70;;;10.40;99.90;;;;;;5082913;28;20189;-75
2020/12/17 12:21:15;;;;;;;6.30;5.63;;;10.30;99.90;;;;;;5083807;28;20883;-75
2020/12/17 12:23:42;;;;;;;9.40;4.97;;;10.30;99.90;;;;;;5083863;28;20597;-75
2020/12/17 12:26:08;;;;;;;8.87;6.10;;;10.30;99.90;;;;;;5083036;28;20456;-75
2020/12/17 12:28:34;;;;;;;11.23;7.10;;;10.30;99.90;;;;;;5085336;28;20946;-76
2020/12/17 12:31:02;;;;;;;7.90;7.10;;;10.30;99.90;;;;;;5081570;28;20499;-76
2020/12/17 12:33:28;;;;;;;7.87;6.20;;;10.30;99.90;;;;;;5085939;28;20357;-76
2020/12/17 12:35:54;;;;;;;9.17;7.03;;;10.30;99.90;;;;;;5085133;28;20424;-76
2020/12/17 12:38:20;;;;;;;11.70;6.80;;;10.40;99.90;;;;;;5079996;28;20877;-75
2020/12/17 12:40:46;;;;;;;6.73;6.03;;;10.40;99.90;;;;;;5082932;28;20209;-77
2020/12/17 12:43:11;;;;;;;15.50;5.60;;;10.30;99.90;;;;;;5083043;28;20502;-75